sensor_id;sensor_type;location;lat;lon;timestamp;P1;durP1;ratioP1;P2;durP2;ratioP2
29006;SDS011;16104;48.642;9.008;2023-09-19T01:03:19;2.70;;;0.65;;
29006;SDS011;16104;48.642;9.008;2023-09-19T01:08:15;1.00;;;0.60;;
29006;SDS011;16104;48.642;9.008;2023-09-19T01:13:29;0.82;;;0.60;;
29006;SDS011;16104;48.642;9.008;2023-09-19T02:04:21;1.00;;;0.63;;
29006;SDS011;16104;48.642;9.008;2023-09-19T02:09:16;2.15;;;1.13;;
29006;SDS011;16104;48.642;9.008;2023-09-19T02:14:12;0.73;;;0.73;;
29006;SDS011;16104;48.642;9.008;2023-09-19T03:05:16;1.38;;;0.70;;
29006;SDS011;16104;48.642;9.008;2023-09-19T03:10:14;2.85;;;0.90;;
29006;SDS011;16104;48.642;9.008;2023-09-19T03:15:11;1.10;;;0.75;;
29006;SDS011;16104;48.642;9.008;2023-09-19T03:20:06;2.33;;;1.00;;
29006;SDS011;16104;48.642;9.008;2023-09-19T03:25:03;1.50;;;0.90;;
29006;SDS011;16104;48.642;9.008;2023-09-19T03:30:03;4.97;;;1.10;;
29006;SDS011;16104;48.642;9.008;2023-09-19T03:35:03;1.98;;;1.10;;
29006;SDS011;16104;48.642;9.008;2023-09-19T03:40:02;1.05;;;0.95;;
29006;SDS011;16104;48.642;9.008;2023-09-19T03:45:00;1.83;;;0.88;;
29006;SDS011;16104;48.642;9.008;2023-09-19T03:49:59;3.03;;;0.93;;
29006;SDS011;16104;48.642;9.008;2023-09-19T03:54:54;1.20;;;1.10;;
29006;SDS011;16104;48.642;9.008;2023-09-19T03:59:50;1.70;;;1.23;;
29006;SDS011;16104;48.642;9.008;2023-09-19T04:04:48;2.10;;;1.10;;
29006;SDS011;16104;48.642;9.008;2023-09-19T04:09:44;3.95;;;1.00;;
29006;SDS011;16104;48.642;9.008;2023-09-19T04:14:40;2.55;;;1.02;;
29006;SDS011;16104;48.642;9.008;2023-09-19T04:19:36;1.83;;;0.90;;
29006;SDS011;16104;48.642;9.008;2023-09-19T04:24:32;1.75;;;0.80;;
29006;SDS011;16104;48.642;9.008;2023-09-19T04:29:28;3.15;;;0.95;;
29006;SDS011;16104;48.642;9.008;2023-09-19T04:34:24;2.40;;;1.00;;
29006;SDS011;16104;48.642;9.008;2023-09-19T04:39:20;1.13;;;1.02;;
29006;SDS011;16104;48.642;9.008;2023-09-19T04:44:16;1.45;;;0.90;;
29006;SDS011;16104;48.642;9.008;2023-09-19T04:49:11;1.33;;;1.00;;
29006;SDS011;16104;48.642;9.008;2023-09-19T04:54:07;1.52;;;1.00;;
29006;SDS011;16104;48.642;9.008;2023-09-19T04:59:03;2.78;;;1.10;;
29006;SDS011;16104;48.642;9.008;2023-09-19T05:03:59;1.73;;;1.10;;
29006;SDS011;16104;48.642;9.008;2023-09-19T05:08:55;3.28;;;1.15;;
29006;SDS011;16104;48.642;9.008;2023-09-19T05:13:51;2.17;;;1.17;;
29006;SDS011;16104;48.642;9.008;2023-09-19T05:18:47;3.50;;;0.98;;
29006;SDS011;16104;48.642;9.008;2023-09-19T05:23:44;1.67;;;1.00;;
29006;SDS011;16104;48.642;9.008;2023-09-19T05:28:40;1.45;;;1.15;;
29006;SDS011;16104;48.642;9.008;2023-09-19T05:33:35;2.33;;;1.00;;
29006;SDS011;16104;48.642;9.008;2023-09-19T05:38:31;2.00;;;1.10;;
29006;SDS011;16104;48.642;9.008;2023-09-19T05:43:27;2.05;;;1.20;;
29006;SDS011;16104;48.642;9.008;2023-09-19T05:48:23;3.25;;;1.27;;
29006;SDS011;16104;48.642;9.008;2023-09-19T05:53:18;1.70;;;1.10;;
29006;SDS011;16104;48.642;9.008;2023-09-19T05:58:14;3.45;;;0.85;;
29006;SDS011;16104;48.642;9.008;2023-09-19T06:03:09;1.50;;;0.85;;
29006;SDS011;16104;48.642;9.008;2023-09-19T06:08:07;4.38;;;0.80;;
29006;SDS011;16104;48.642;9.008;2023-09-19T06:13:03;2.55;;;0.80;;
29006;SDS011;16104;48.642;9.008;2023-09-19T06:18:04;1.77;;;0.70;;
29006;SDS011;16104;48.642;9.008;2023-09-19T06:23:07;1.60;;;0.60;;
29006;SDS011;16104;48.642;9.008;2023-09-19T06:28:02;0.75;;;0.43;;
29006;SDS011;16104;48.642;9.008;2023-09-19T06:33:00;1.17;;;0.65;;
29006;SDS011;16104;48.642;9.008;2023-09-19T06:37:56;1.35;;;0.70;;
29006;SDS011;16104;48.642;9.008;2023-09-19T06:42:52;1.65;;;0.73;;
29006;SDS011;16104;48.642;9.008;2023-09-19T06:47:49;2.15;;;0.80;;
29006;SDS011;16104;48.642;9.008;2023-09-19T06:52:46;1.10;;;0.77;;
29006;SDS011;16104;48.642;9.008;2023-09-19T06:57:45;3.10;;;0.95;;
29006;SDS011;16104;48.642;9.008;2023-09-19T07:02:41;1.95;;;0.80;;
29006;SDS011;16104;48.642;9.008;2023-09-19T07:07:37;1.60;;;0.90;;
29006;SDS011;16104;48.642;9.008;2023-09-19T07:12:32;5.05;;;1.10;;
29006;SDS011;16104;48.642;9.008;2023-09-19T07:17:28;1.00;;;0.85;;
29006;SDS011;16104;48.642;9.008;2023-09-19T07:22:27;2.63;;;1.05;;
29006;SDS011;16104;48.642;9.008;2023-09-19T07:27:23;1.02;;;0.90;;
29006;SDS011;16104;48.642;9.008;2023-09-19T07:32:18;1.63;;;0.95;;
29006;SDS011;16104;48.642;9.008;2023-09-19T07:37:14;2.55;;;1.20;;
29006;SDS011;16104;48.642;9.008;2023-09-19T07:42:11;1.05;;;1.00;;
29006;SDS011;16104;48.642;9.008;2023-09-19T07:47:13;2.65;;;1.08;;
29006;SDS011;16104;48.642;9.008;2023-09-19T07:52:09;0.93;;;0.90;;
29006;SDS011;16104;48.642;9.008;2023-09-19T07:57:05;2.03;;;0.93;;
29006;SDS011;16104;48.642;9.008;2023-09-19T08:02:00;1.00;;;0.85;;
29006;SDS011;16104;48.642;9.008;2023-09-19T08:06:56;1.27;;;0.90;;
29006;SDS011;16104;48.642;9.008;2023-09-19T08:11:55;2.63;;;1.10;;
29006;SDS011;16104;48.642;9.008;2023-09-19T08:16:50;1.83;;;1.23;;
29006;SDS011;16104;48.642;9.008;2023-09-19T08:21:46;1.55;;;1.23;;
29006;SDS011;16104;48.642;9.008;2023-09-19T08:26:42;2.85;;;1.10;;
29006;SDS011;16104;48.642;9.008;2023-09-19T08:31:39;1.13;;;0.90;;
29006;SDS011;16104;48.642;9.008;2023-09-19T08:36:35;1.75;;;1.00;;
29006;SDS011;16104;48.642;9.008;2023-09-19T08:41:32;1.60;;;1.10;;
29006;SDS011;16104;48.642;9.008;2023-09-19T08:46:27;2.33;;;1.00;;
29006;SDS011;16104;48.642;9.008;2023-09-19T08:51:26;1.20;;;0.98;;
29006;SDS011;16104;48.642;9.008;2023-09-19T08:56:28;2.45;;;0.90;;
29006;SDS011;16104;48.642;9.008;2023-09-19T09:01:27;2.88;;;0.90;;
29006;SDS011;16104;48.642;9.008;2023-09-19T09:06:23;2.93;;;1.10;;
29006;SDS011;16104;48.642;9.008;2023-09-19T09:11:20;1.50;;;0.98;;
29006;SDS011;16104;48.642;9.008;2023-09-19T09:16:19;1.75;;;1.20;;
29006;SDS011;16104;48.642;9.008;2023-09-19T09:21:15;1.20;;;1.10;;
29006;SDS011;16104;48.642;9.008;2023-09-19T09:26:11;2.90;;;1.27;;
29006;SDS011;16104;48.642;9.008;2023-09-19T09:31:07;2.05;;;1.10;;
29006;SDS011;16104;48.642;9.008;2023-09-19T09:36:17;2.30;;;1.20;;
29006;SDS011;16104;48.642;9.008;2023-09-19T09:41:35;3.22;;;1.02;;
29006;SDS011;16104;48.642;9.008;2023-09-19T09:46:32;1.45;;;1.27;;
29006;SDS011;16104;48.642;9.008;2023-09-19T09:51:57;1.58;;;1.00;;
29006;SDS011;16104;48.642;9.008;2023-09-19T09:57:06;3.00;;;0.95;;
29006;SDS011;16104;48.642;9.008;2023-09-19T10:02:30;2.03;;;1.30;;
29006;SDS011;16104;48.642;9.008;2023-09-19T10:07:35;1.90;;;1.27;;
29006;SDS011;16104;48.642;9.008;2023-09-19T10:12:39;2.13;;;1.20;;
29006;SDS011;16104;48.642;9.008;2023-09-19T10:17:38;2.47;;;1.10;;
29006;SDS011;16104;48.642;9.008;2023-09-19T10:22:41;1.40;;;1.00;;
29006;SDS011;16104;48.642;9.008;2023-09-19T10:27:37;2.33;;;1.40;;
29006;SDS011;16104;48.642;9.008;2023-09-19T10:32:34;2.97;;;1.10;;
29006;SDS011;16104;48.642;9.008;2023-09-19T10:37:31;3.33;;;1.58;;
29006;SDS011;16104;48.642;9.008;2023-09-19T10:42:29;1.45;;;1.08;;
29006;SDS011;16104;48.642;9.008;2023-09-19T10:47:27;2.45;;;1.13;;
29006;SDS011;16104;48.642;9.008;2023-09-19T10:52:24;2.70;;;1.40;;
29006;SDS011;16104;48.642;9.008;2023-09-19T10:57:21;3.95;;;1.38;;
29006;SDS011;16104;48.642;9.008;2023-09-19T11:02:18;1.00;;;0.90;;
29006;SDS011;16104;48.642;9.008;2023-09-19T11:07:14;4.13;;;1.15;;
29006;SDS011;16104;48.642;9.008;2023-09-19T11:12:10;1.20;;;1.05;;
29006;SDS011;16104;48.642;9.008;2023-09-19T11:22:10;2.33;;;0.90;;
29006;SDS011;16104;48.642;9.008;2023-09-19T11:27:13;3.00;;;0.90;;
29006;SDS011;16104;48.642;9.008;2023-09-19T11:32:09;1.88;;;1.27;;
29006;SDS011;16104;48.642;9.008;2023-09-19T11:47:48;1.25;;;0.90;;
29006;SDS011;16104;48.642;9.008;2023-09-19T11:52:45;2.90;;;1.17;;
29006;SDS011;16104;48.642;9.008;2023-09-19T11:57:42;0.93;;;0.90;;
29006;SDS011;16104;48.642;9.008;2023-09-19T12:02:39;1.33;;;0.80;;
29006;SDS011;16104;48.642;9.008;2023-09-19T12:12:47;1.20;;;1.10;;
29006;SDS011;16104;48.642;9.008;2023-09-19T12:17:47;1.90;;;1.08;;
29006;SDS011;16104;48.642;9.008;2023-09-19T12:22:44;3.28;;;1.00;;
29006;SDS011;16104;48.642;9.008;2023-09-19T12:27:42;1.48;;;1.10;;
29006;SDS011;16104;48.642;9.008;2023-09-19T12:32:58;2.55;;;1.10;;
29006;SDS011;16104;48.642;9.008;2023-09-19T12:37:54;2.67;;;1.00;;
29006;SDS011;16104;48.642;9.008;2023-09-19T12:42:50;2.03;;;1.00;;
29006;SDS011;16104;48.642;9.008;2023-09-19T12:53:24;5.38;;;1.30;;
29006;SDS011;16104;48.642;9.008;2023-09-19T12:58:20;2.50;;;1.10;;
29006;SDS011;16104;48.642;9.008;2023-09-19T13:03:26;5.90;;;1.20;;
29006;SDS011;16104;48.642;9.008;2023-09-19T13:08:30;1.52;;;1.23;;
29006;SDS011;16104;48.642;9.008;2023-09-19T13:13:33;0.80;;;0.80;;
29006;SDS011;16104;48.642;9.008;2023-09-19T13:18:31;1.80;;;1.17;;
29006;SDS011;16104;48.642;9.008;2023-09-19T13:23:28;1.77;;;1.00;;
29006;SDS011;16104;48.642;9.008;2023-09-19T13:28:23;1.75;;;1.02;;
29006;SDS011;16104;48.642;9.008;2023-09-19T13:33:19;3.20;;;1.15;;
29006;SDS011;16104;48.642;9.008;2023-09-19T13:38:16;2.22;;;0.90;;
29006;SDS011;16104;48.642;9.008;2023-09-19T13:43:13;2.38;;;1.08;;
29006;SDS011;16104;48.642;9.008;2023-09-19T13:48:09;1.10;;;1.00;;
29006;SDS011;16104;48.642;9.008;2023-09-19T13:53:06;1.90;;;0.98;;
29006;SDS011;16104;48.642;9.008;2023-09-19T13:58:01;5.78;;;1.23;;
29006;SDS011;16104;48.642;9.008;2023-09-19T14:02:57;2.00;;;1.20;;
29006;SDS011;16104;48.642;9.008;2023-09-19T14:07:52;2.63;;;1.40;;
29006;SDS011;16104;48.642;9.008;2023-09-19T14:12:49;1.40;;;0.98;;
29006;SDS011;16104;48.642;9.008;2023-09-19T14:17:45;1.35;;;1.00;;
29006;SDS011;16104;48.642;9.008;2023-09-19T14:22:40;1.58;;;0.90;;
29006;SDS011;16104;48.642;9.008;2023-09-19T14:27:36;2.03;;;0.80;;
29006;SDS011;16104;48.642;9.008;2023-09-19T14:32:32;1.33;;;0.68;;
29006;SDS011;16104;48.642;9.008;2023-09-19T14:37:28;3.40;;;1.00;;
29006;SDS011;16104;48.642;9.008;2023-09-19T14:42:23;1.20;;;0.98;;
29006;SDS011;16104;48.642;9.008;2023-09-19T14:47:19;1.17;;;1.02;;
29006;SDS011;16104;48.642;9.008;2023-09-19T14:52:14;1.73;;;1.10;;
29006;SDS011;16104;48.642;9.008;2023-09-19T14:57:10;1.02;;;0.90;;
29006;SDS011;16104;48.642;9.008;2023-09-19T15:02:08;1.70;;;1.08;;
29006;SDS011;16104;48.642;9.008;2023-09-19T15:07:04;1.27;;;0.77;;
29006;SDS011;16104;48.642;9.008;2023-09-19T15:11:59;1.25;;;0.90;;
29006;SDS011;16104;48.642;9.008;2023-09-19T15:16:55;1.17;;;0.80;;
29006;SDS011;16104;48.642;9.008;2023-09-19T15:21:50;1.25;;;1.00;;
29006;SDS011;16104;48.642;9.008;2023-09-19T15:26:46;2.22;;;0.98;;
29006;SDS011;16104;48.642;9.008;2023-09-19T15:31:42;1.10;;;0.73;;
29006;SDS011;16104;48.642;9.008;2023-09-19T15:36:38;2.33;;;0.82;;
29006;SDS011;16104;48.642;9.008;2023-09-19T15:41:38;1.75;;;1.00;;
29006;SDS011;16104;48.642;9.008;2023-09-19T15:46:34;2.15;;;0.80;;
29006;SDS011;16104;48.642;9.008;2023-09-19T15:51:30;1.65;;;0.80;;
29006;SDS011;16104;48.642;9.008;2023-09-19T15:56:25;2.10;;;1.23;;
29006;SDS011;16104;48.642;9.008;2023-09-19T16:01:22;1.40;;;0.70;;
29006;SDS011;16104;48.642;9.008;2023-09-19T16:06:18;1.67;;;1.10;;
29006;SDS011;16104;48.642;9.008;2023-09-19T16:11:15;1.38;;;1.00;;
29006;SDS011;16104;48.642;9.008;2023-09-19T16:16:13;0.98;;;0.77;;
29006;SDS011;16104;48.642;9.008;2023-09-19T16:21:11;1.67;;;1.00;;
29006;SDS011;16104;48.642;9.008;2023-09-19T16:26:07;1.23;;;0.77;;
29006;SDS011;16104;48.642;9.008;2023-09-19T16:31:04;3.00;;;0.90;;
29006;SDS011;16104;48.642;9.008;2023-09-19T16:36:01;2.70;;;1.10;;
29006;SDS011;16104;48.642;9.008;2023-09-19T16:40:57;1.13;;;0.82;;
29006;SDS011;16104;48.642;9.008;2023-09-19T16:45:54;4.40;;;1.10;;
29006;SDS011;16104;48.642;9.008;2023-09-19T16:50:53;1.50;;;0.93;;
29006;SDS011;16104;48.642;9.008;2023-09-19T16:55:49;1.58;;;1.10;;
29006;SDS011;16104;48.642;9.008;2023-09-19T17:00:45;1.38;;;1.27;;
29006;SDS011;16104;48.642;9.008;2023-09-19T17:05:44;2.15;;;1.05;;
29006;SDS011;16104;48.642;9.008;2023-09-19T17:10:42;3.22;;;1.30;;
29006;SDS011;16104;48.642;9.008;2023-09-19T17:15:39;1.58;;;1.10;;
29006;SDS011;16104;48.642;9.008;2023-09-19T17:20:40;1.58;;;1.00;;
29006;SDS011;16104;48.642;9.008;2023-09-19T17:25:36;1.23;;;0.98;;
29006;SDS011;16104;48.642;9.008;2023-09-19T17:30:32;2.28;;;1.25;;
29006;SDS011;16104;48.642;9.008;2023-09-19T17:35:27;1.98;;;1.58;;
29006;SDS011;16104;48.642;9.008;2023-09-19T17:40:23;2.42;;;1.17;;
29006;SDS011;16104;48.642;9.008;2023-09-19T17:45:18;1.60;;;1.30;;
29006;SDS011;16104;48.642;9.008;2023-09-19T17:50:14;3.17;;;1.20;;
29006;SDS011;16104;48.642;9.008;2023-09-19T17:55:11;1.38;;;1.27;;
29006;SDS011;16104;48.642;9.008;2023-09-19T18:00:08;1.63;;;1.27;;
29006;SDS011;16104;48.642;9.008;2023-09-19T18:05:06;2.28;;;1.55;;
29006;SDS011;16104;48.642;9.008;2023-09-19T18:10:11;1.42;;;1.10;;
29006;SDS011;16104;48.642;9.008;2023-09-19T18:15:08;4.38;;;1.65;;
29006;SDS011;16104;48.642;9.008;2023-09-19T18:20:04;4.03;;;1.50;;
29006;SDS011;16104;48.642;9.008;2023-09-19T18:25:01;1.95;;;1.50;;
29006;SDS011;16104;48.642;9.008;2023-09-19T18:29:57;4.57;;;1.30;;
29006;SDS011;16104;48.642;9.008;2023-09-19T18:34:52;3.47;;;1.40;;
29006;SDS011;16104;48.642;9.008;2023-09-19T18:39:48;3.47;;;1.42;;
29006;SDS011;16104;48.642;9.008;2023-09-19T18:44:44;3.35;;;1.40;;
29006;SDS011;16104;48.642;9.008;2023-09-19T18:49:41;2.97;;;1.67;;
29006;SDS011;16104;48.642;9.008;2023-09-19T18:54:36;1.88;;;1.65;;
29006;SDS011;16104;48.642;9.008;2023-09-19T18:59:33;5.10;;;1.50;;
29006;SDS011;16104;48.642;9.008;2023-09-19T19:04:29;3.60;;;1.40;;
29006;SDS011;16104;48.642;9.008;2023-09-19T19:09:25;1.67;;;1.30;;
29006;SDS011;16104;48.642;9.008;2023-09-19T19:14:20;1.50;;;1.20;;
29006;SDS011;16104;48.642;9.008;2023-09-19T19:19:16;1.85;;;1.60;;
29006;SDS011;16104;48.642;9.008;2023-09-19T19:24:12;1.25;;;1.15;;
29006;SDS011;16104;48.642;9.008;2023-09-19T19:29:08;1.98;;;1.52;;
29006;SDS011;16104;48.642;9.008;2023-09-19T19:34:05;3.28;;;1.90;;
29006;SDS011;16104;48.642;9.008;2023-09-19T19:39:01;2.72;;;1.60;;
29006;SDS011;16104;48.642;9.008;2023-09-19T19:43:57;1.60;;;1.50;;
29006;SDS011;16104;48.642;9.008;2023-09-19T19:48:53;1.92;;;1.50;;
29006;SDS011;16104;48.642;9.008;2023-09-19T19:53:49;2.10;;;1.35;;
29006;SDS011;16104;48.642;9.008;2023-09-19T19:58:45;3.45;;;1.80;;
29006;SDS011;16104;48.642;9.008;2023-09-19T20:03:42;2.25;;;1.40;;
29006;SDS011;16104;48.642;9.008;2023-09-19T20:08:38;2.78;;;1.80;;
29006;SDS011;16104;48.642;9.008;2023-09-19T20:13:33;3.10;;;1.55;;
29006;SDS011;16104;48.642;9.008;2023-09-19T20:18:29;2.88;;;1.55;;
29006;SDS011;16104;48.642;9.008;2023-09-19T20:23:25;4.40;;;1.75;;
29006;SDS011;16104;48.642;9.008;2023-09-19T20:28:20;2.08;;;1.60;;
29006;SDS011;16104;48.642;9.008;2023-09-19T20:33:16;2.17;;;1.60;;
29006;SDS011;16104;48.642;9.008;2023-09-19T20:38:12;1.63;;;1.38;;
29006;SDS011;16104;48.642;9.008;2023-09-19T20:43:07;2.63;;;1.65;;
29006;SDS011;16104;48.642;9.008;2023-09-19T20:48:03;1.95;;;1.70;;
29006;SDS011;16104;48.642;9.008;2023-09-19T20:52:59;3.15;;;2.03;;
29006;SDS011;16104;48.642;9.008;2023-09-19T20:57:54;4.03;;;1.63;;
29006;SDS011;16104;48.642;9.008;2023-09-19T21:02:50;2.70;;;1.80;;
29006;SDS011;16104;48.642;9.008;2023-09-19T21:07:49;4.35;;;1.88;;
29006;SDS011;16104;48.642;9.008;2023-09-19T21:12:46;2.17;;;1.75;;
29006;SDS011;16104;48.642;9.008;2023-09-19T21:17:43;2.40;;;1.50;;
29006;SDS011;16104;48.642;9.008;2023-09-19T21:22:40;1.90;;;1.70;;
29006;SDS011;16104;48.642;9.008;2023-09-19T21:27:36;2.10;;;1.60;;
29006;SDS011;16104;48.642;9.008;2023-09-19T21:32:32;1.80;;;1.55;;
29006;SDS011;16104;48.642;9.008;2023-09-19T21:37:27;2.13;;;1.60;;
29006;SDS011;16104;48.642;9.008;2023-09-19T21:42:23;2.58;;;1.60;;
29006;SDS011;16104;48.642;9.008;2023-09-19T21:47:19;3.10;;;1.40;;
29006;SDS011;16104;48.642;9.008;2023-09-19T21:52:14;3.40;;;1.77;;
29006;SDS011;16104;48.642;9.008;2023-09-19T21:57:10;4.35;;;1.90;;
29006;SDS011;16104;48.642;9.008;2023-09-19T22:02:05;1.60;;;1.40;;
29006;SDS011;16104;48.642;9.008;2023-09-19T22:07:02;2.17;;;1.63;;
29006;SDS011;16104;48.642;9.008;2023-09-19T22:11:57;2.00;;;1.70;;
29006;SDS011;16104;48.642;9.008;2023-09-19T22:16:54;3.78;;;1.45;;
29006;SDS011;16104;48.642;9.008;2023-09-19T22:21:54;3.00;;;1.60;;
29006;SDS011;16104;48.642;9.008;2023-09-19T22:26:50;1.85;;;1.70;;
29006;SDS011;16104;48.642;9.008;2023-09-19T22:31:46;2.72;;;1.40;;
29006;SDS011;16104;48.642;9.008;2023-09-19T22:36:41;2.00;;;1.45;;
29006;SDS011;16104;48.642;9.008;2023-09-19T22:41:43;2.35;;;1.63;;
29006;SDS011;16104;48.642;9.008;2023-09-19T22:46:40;2.10;;;1.50;;
29006;SDS011;16104;48.642;9.008;2023-09-19T22:51:37;1.80;;;1.60;;
29006;SDS011;16104;48.642;9.008;2023-09-19T22:56:36;3.43;;;1.30;;
29006;SDS011;16104;48.642;9.008;2023-09-19T23:01:32;1.77;;;1.40;;
29006;SDS011;16104;48.642;9.008;2023-09-19T23:06:31;3.65;;;1.33;;
29006;SDS011;16104;48.642;9.008;2023-09-19T23:11:28;2.50;;;1.30;;
29006;SDS011;16104;48.642;9.008;2023-09-19T23:16:26;2.75;;;1.75;;
29006;SDS011;16104;48.642;9.008;2023-09-19T23:21:23;2.40;;;1.45;;
29006;SDS011;16104;48.642;9.008;2023-09-19T23:26:22;2.75;;;1.70;;
29006;SDS011;16104;48.642;9.008;2023-09-19T23:31:21;4.07;;;1.50;;
29006;SDS011;16104;48.642;9.008;2023-09-19T23:36:17;2.95;;;1.52;;
29006;SDS011;16104;48.642;9.008;2023-09-19T23:41:12;2.08;;;1.50;;
29006;SDS011;16104;48.642;9.008;2023-09-19T23:46:15;2.95;;;1.50;;
29006;SDS011;16104;48.642;9.008;2023-09-19T23:51:11;2.13;;;1.45;;
29006;SDS011;16104;48.642;9.008;2023-09-19T23:56:07;2.20;;;1.48;;
